sensor_id;sensor_type;location;lat;lon;timestamp;temperature;humidity
2012;DHT22;1009;51.436;6.972;2023-03-01T00:00:44;1.50;99.90
2012;DHT22;1009;51.436;6.972;2023-03-01T00:03:12;1.50;99.90
2012;DHT22;1009;51.436;6.972;2023-03-01T00:05:44;1.50;99.90
2012;DHT22;1009;51.436;6.972;2023-03-01T00:08:11;1.40;99.90
2012;DHT22;1009;51.436;6.972;2023-03-01T00:10:39;1.30;99.90
2012;DHT22;1009;51.436;6.972;2023-03-01T00:13:06;1.20;99.90
2012;DHT22;1009;51.436;6.972;2023-03-01T00:15:32;1.20;99.90
2012;DHT22;1009;51.436;6.972;2023-03-01T00:18:00;1.30;99.90
2012;DHT22;1009;51.436;6.972;2023-03-01T00:20:27;1.20;99.90
2012;DHT22;1009;51.436;6.972;2023-03-01T00:22:53;1.20;99.90
2012;DHT22;1009;51.436;6.972;2023-03-01T00:25:20;1.10;99.90
2012;DHT22;1009;51.436;6.972;2023-03-01T00:27:48;1.10;99.90
2012;DHT22;1009;51.436;6.972;2023-03-01T00:30:15;1.10;99.90
2012;DHT22;1009;51.436;6.972;2023-03-01T00:32:42;1.20;99.90
2012;DHT22;1009;51.436;6.972;2023-03-01T00:35:09;1.20;99.90
2012;DHT22;1009;51.436;6.972;2023-03-01T00:37:38;1.20;99.90
2012;DHT22;1009;51.436;6.972;2023-03-01T00:40:08;1.20;99.90
2012;DHT22;1009;51.436;6.972;2023-03-01T00:42:35;1.20;99.90
2012;DHT22;1009;51.436;6.972;2023-03-01T00:45:04;1.10;99.90
2012;DHT22;1009;51.436;6.972;2023-03-01T00:47:33;1.10;99.90
2012;DHT22;1009;51.436;6.972;2023-03-01T00:49:59;1.10;99.90
2012;DHT22;1009;51.436;6.972;2023-03-01T00:52:26;1.00;99.90
2012;DHT22;1009;51.436;6.972;2023-03-01T00:54:53;0.90;99.90
2012;DHT22;1009;51.436;6.972;2023-03-01T00:57:20;0.90;99.90
2012;DHT22;1009;51.436;6.972;2023-03-01T00:59:47;0.90;99.90
2012;DHT22;1009;51.436;6.972;2023-03-01T01:02:15;1.00;99.90
2012;DHT22;1009;51.436;6.972;2023-03-01T01:04:41;1.00;99.90
2012;DHT22;1009;51.436;6.972;2023-03-01T01:07:08;1.00;99.90
2012;DHT22;1009;51.436;6.972;2023-03-01T01:09:35;1.00;99.90
2012;DHT22;1009;51.436;6.972;2023-03-01T01:12:02;1.00;99.90
2012;DHT22;1009;51.436;6.972;2023-03-01T01:14:29;1.00;99.90
2012;DHT22;1009;51.436;6.972;2023-03-01T01:16:56;1.00;99.90
2012;DHT22;1009;51.436;6.972;2023-03-01T01:19:25;1.00;99.90
2012;DHT22;1009;51.436;6.972;2023-03-01T01:21:57;1.00;99.90
2012;DHT22;1009;51.436;6.972;2023-03-01T01:24:24;0.90;99.90
2012;DHT22;1009;51.436;6.972;2023-03-01T01:26:51;0.90;99.90
2012;DHT22;1009;51.436;6.972;2023-03-01T01:29:18;0.90;99.90
2012;DHT22;1009;51.436;6.972;2023-03-01T01:31:47;0.90;99.90
2012;DHT22;1009;51.436;6.972;2023-03-01T01:34:16;0.80;99.90
2012;DHT22;1009;51.436;6.972;2023-03-01T01:36:47;0.80;99.90
2012;DHT22;1009;51.436;6.972;2023-03-01T01:39:14;0.60;99.90
2012;DHT22;1009;51.436;6.972;2023-03-01T01:41:42;0.60;99.90
2012;DHT22;1009;51.436;6.972;2023-03-01T01:44:17;0.60;99.90
2012;DHT22;1009;51.436;6.972;2023-03-01T01:46:47;0.60;99.90
2012;DHT22;1009;51.436;6.972;2023-03-01T01:52:11;0.60;99.90
2012;DHT22;1009;51.436;6.972;2023-03-01T01:54:43;0.50;99.90
2012;DHT22;1009;51.436;6.972;2023-03-01T01:57:14;0.50;99.90
2012;DHT22;1009;51.436;6.972;2023-03-01T01:59:45;0.50;99.90
2012;DHT22;1009;51.436;6.972;2023-03-01T02:02:13;0.50;99.90
2012;DHT22;1009;51.436;6.972;2023-03-01T02:04:43;0.30;99.90
2012;DHT22;1009;51.436;6.972;2023-03-01T02:07:14;0.30;99.90
2012;DHT22;1009;51.436;6.972;2023-03-01T02:09:45;0.30;99.90
2012;DHT22;1009;51.436;6.972;2023-03-01T02:12:16;0.30;99.90
2012;DHT22;1009;51.436;6.972;2023-03-01T02:14:44;0.30;99.90
2012;DHT22;1009;51.436;6.972;2023-03-01T02:17:11;0.30;99.90
2012;DHT22;1009;51.436;6.972;2023-03-01T02:19:47;0.20;99.90
2012;DHT22;1009;51.436;6.972;2023-03-01T02:22:22;0.00;99.90
2012;DHT22;1009;51.436;6.972;2023-03-01T02:25:11;0.10;99.90
2012;DHT22;1009;51.436;6.972;2023-03-01T02:27:45;0.20;99.90
2012;DHT22;1009;51.436;6.972;2023-03-01T02:30:15;0.30;99.90
2012;DHT22;1009;51.436;6.972;2023-03-01T02:32:42;0.30;99.90
2012;DHT22;1009;51.436;6.972;2023-03-01T02:35:09;0.30;99.90
2012;DHT22;1009;51.436;6.972;2023-03-01T02:37:37;0.30;99.90
2012;DHT22;1009;51.436;6.972;2023-03-01T02:40:07;0.30;99.90
2012;DHT22;1009;51.436;6.972;2023-03-01T02:42:43;0.40;99.90
2012;DHT22;1009;51.436;6.972;2023-03-01T02:45:12;0.40;99.90
2012;DHT22;1009;51.436;6.972;2023-03-01T02:47:40;0.40;99.90
2012;DHT22;1009;51.436;6.972;2023-03-01T02:50:15;0.50;99.90
2012;DHT22;1009;51.436;6.972;2023-03-01T02:52:47;0.40;99.90
2012;DHT22;1009;51.436;6.972;2023-03-01T02:55:17;0.30;99.90
2012;DHT22;1009;51.436;6.972;2023-03-01T02:57:45;0.40;99.90
2012;DHT22;1009;51.436;6.972;2023-03-01T03:00:18;0.30;99.90
2012;DHT22;1009;51.436;6.972;2023-03-01T03:02:50;0.20;99.90
2012;DHT22;1009;51.436;6.972;2023-03-01T03:05:19;0.10;99.90
2012;DHT22;1009;51.436;6.972;2023-03-01T03:07:47;0.20;99.90
2012;DHT22;1009;51.436;6.972;2023-03-01T03:10:17;0.20;99.90
2012;DHT22;1009;51.436;6.972;2023-03-01T03:12:49;0.20;99.90
2012;DHT22;1009;51.436;6.972;2023-03-01T03:15:15;0.20;99.90
2012;DHT22;1009;51.436;6.972;2023-03-01T03:17:43;0.20;99.90
2012;DHT22;1009;51.436;6.972;2023-03-01T03:20:14;0.20;99.90
2012;DHT22;1009;51.436;6.972;2023-03-01T03:22:44;0.20;99.90
2012;DHT22;1009;51.436;6.972;2023-03-01T03:25:11;0.20;99.90
2012;DHT22;1009;51.436;6.972;2023-03-01T03:27:39;0.20;99.90
2012;DHT22;1009;51.436;6.972;2023-03-01T03:30:09;0.10;99.90
2012;DHT22;1009;51.436;6.972;2023-03-01T03:32:37;0.20;99.90
2012;DHT22;1009;51.436;6.972;2023-03-01T03:35:06;0.10;99.90
2012;DHT22;1009;51.436;6.972;2023-03-01T03:37:40;0.10;99.90
2012;DHT22;1009;51.436;6.972;2023-03-01T03:40:31;-0.10;99.90
2012;DHT22;1009;51.436;6.972;2023-03-01T03:43:08;-0.10;99.90
2012;DHT22;1009;51.436;6.972;2023-03-01T03:45:36;-0.20;99.90
2012;DHT22;1009;51.436;6.972;2023-03-01T03:48:05;-0.10;99.90
2012;DHT22;1009;51.436;6.972;2023-03-01T03:50:32;-0.10;99.90
2012;DHT22;1009;51.436;6.972;2023-03-01T03:53:02;-0.10;99.90
2012;DHT22;1009;51.436;6.972;2023-03-01T03:55:30;-0.10;99.90
2012;DHT22;1009;51.436;6.972;2023-03-01T03:58:02;-0.10;99.90
2012;DHT22;1009;51.436;6.972;2023-03-01T04:00:33;-0.10;99.90
2012;DHT22;1009;51.436;6.972;2023-03-01T04:03:00;-0.10;99.90
2012;DHT22;1009;51.436;6.972;2023-03-01T04:05:30;-0.10;99.90
2012;DHT22;1009;51.436;6.972;2023-03-01T04:08:02;-0.10;99.90
2012;DHT22;1009;51.436;6.972;2023-03-01T04:10:31;-0.10;99.90
2012;DHT22;1009;51.436;6.972;2023-03-01T04:12:58;-0.10;99.90
2012;DHT22;1009;51.436;6.972;2023-03-01T04:15:25;-0.10;99.90
2012;DHT22;1009;51.436;6.972;2023-03-01T04:17:54;-0.10;99.90
2012;DHT22;1009;51.436;6.972;2023-03-01T04:20:23;-0.20;99.90
2012;DHT22;1009;51.436;6.972;2023-03-01T04:22:51;-0.30;99.90
2012;DHT22;1009;51.436;6.972;2023-03-01T04:25:20;-0.30;99.90
2012;DHT22;1009;51.436;6.972;2023-03-01T04:27:53;-0.30;99.90
2012;DHT22;1009;51.436;6.972;2023-03-01T04:30:20;-0.40;99.90
2012;DHT22;1009;51.436;6.972;2023-03-01T04:32:50;-0.40;99.90
2012;DHT22;1009;51.436;6.972;2023-03-01T04:35:17;-0.40;99.90
2012;DHT22;1009;51.436;6.972;2023-03-01T04:37:44;-0.40;99.90
2012;DHT22;1009;51.436;6.972;2023-03-01T04:40:11;-0.40;99.90
2012;DHT22;1009;51.436;6.972;2023-03-01T04:42:43;-0.40;99.90
2012;DHT22;1009;51.436;6.972;2023-03-01T04:45:10;-0.40;99.90
2012;DHT22;1009;51.436;6.972;2023-03-01T04:47:39;-0.40;99.90
2012;DHT22;1009;51.436;6.972;2023-03-01T04:50:07;-0.30;99.90
2012;DHT22;1009;51.436;6.972;2023-03-01T04:52:38;-0.30;99.90
2012;DHT22;1009;51.436;6.972;2023-03-01T04:55:05;-0.30;99.90
2012;DHT22;1009;51.436;6.972;2023-03-01T04:57:32;-0.30;99.90
2012;DHT22;1009;51.436;6.972;2023-03-01T05:00:00;-0.30;99.90
2012;DHT22;1009;51.436;6.972;2023-03-01T05:02:45;-0.50;99.90
2012;DHT22;1009;51.436;6.972;2023-03-01T05:05:13;-0.50;99.90
2012;DHT22;1009;51.436;6.972;2023-03-01T05:07:40;-0.50;99.90
2012;DHT22;1009;51.436;6.972;2023-03-01T05:10:08;-0.40;99.90
2012;DHT22;1009;51.436;6.972;2023-03-01T05:12:34;-0.40;99.90
2012;DHT22;1009;51.436;6.972;2023-03-01T05:15:05;-0.40;99.90
2012;DHT22;1009;51.436;6.972;2023-03-01T05:17:32;-0.40;99.90
2012;DHT22;1009;51.436;6.972;2023-03-01T05:19:59;-0.40;99.90
2012;DHT22;1009;51.436;6.972;2023-03-01T05:22:26;-0.40;99.90
2012;DHT22;1009;51.436;6.972;2023-03-01T05:24:53;-0.40;99.90
2012;DHT22;1009;51.436;6.972;2023-03-01T05:27:20;-0.40;99.90
2012;DHT22;1009;51.436;6.972;2023-03-01T05:29:47;-0.40;99.90
2012;DHT22;1009;51.436;6.972;2023-03-01T05:32:16;-0.40;99.90
2012;DHT22;1009;51.436;6.972;2023-03-01T05:34:42;-0.40;99.90
2012;DHT22;1009;51.436;6.972;2023-03-01T05:37:11;-0.40;99.90
2012;DHT22;1009;51.436;6.972;2023-03-01T05:39:38;-0.40;99.90
2012;DHT22;1009;51.436;6.972;2023-03-01T05:42:10;-0.30;99.90
2012;DHT22;1009;51.436;6.972;2023-03-01T05:44:37;-0.30;99.90
2012;DHT22;1009;51.436;6.972;2023-03-01T05:47:04;-0.40;99.90
2012;DHT22;1009;51.436;6.972;2023-03-01T05:49:33;-0.40;99.90
2012;DHT22;1009;51.436;6.972;2023-03-01T05:52:00;-0.40;99.90
2012;DHT22;1009;51.436;6.972;2023-03-01T05:54:26;-0.30;99.90
2012;DHT22;1009;51.436;6.972;2023-03-01T05:56:53;-0.30;99.90
2012;DHT22;1009;51.436;6.972;2023-03-01T05:59:20;-0.40;99.90
2012;DHT22;1009;51.436;6.972;2023-03-01T06:01:47;-0.30;99.90
2012;DHT22;1009;51.436;6.972;2023-03-01T06:04:13;-0.30;99.90
2012;DHT22;1009;51.436;6.972;2023-03-01T06:06:41;-0.40;99.90
2012;DHT22;1009;51.436;6.972;2023-03-01T06:09:08;-0.40;99.90
2012;DHT22;1009;51.436;6.972;2023-03-01T06:11:36;-0.40;99.90
2012;DHT22;1009;51.436;6.972;2023-03-01T06:14:03;-0.40;99.90
2012;DHT22;1009;51.436;6.972;2023-03-01T06:16:31;-0.50;99.90
2012;DHT22;1009;51.436;6.972;2023-03-01T06:19:01;-0.40;99.90
2012;DHT22;1009;51.436;6.972;2023-03-01T06:21:28;-0.40;99.90
2012;DHT22;1009;51.436;6.972;2023-03-01T06:23:56;-0.50;99.90
2012;DHT22;1009;51.436;6.972;2023-03-01T06:26:23;-0.40;99.90
2012;DHT22;1009;51.436;6.972;2023-03-01T06:28:49;-0.40;99.90
2012;DHT22;1009;51.436;6.972;2023-03-01T06:31:16;-0.40;99.90
2012;DHT22;1009;51.436;6.972;2023-03-01T06:33:43;-0.40;99.90
2012;DHT22;1009;51.436;6.972;2023-03-01T06:36:13;-0.40;99.90
2012;DHT22;1009;51.436;6.972;2023-03-01T06:38:44;-0.40;99.90
2012;DHT22;1009;51.436;6.972;2023-03-01T06:41:12;-0.30;99.90
2012;DHT22;1009;51.436;6.972;2023-03-01T06:43:39;-0.30;99.90
2012;DHT22;1009;51.436;6.972;2023-03-01T06:46:06;-0.30;99.90
2012;DHT22;1009;51.436;6.972;2023-03-01T06:48:33;-0.30;99.90
2012;DHT22;1009;51.436;6.972;2023-03-01T06:51:00;-0.30;99.90
2012;DHT22;1009;51.436;6.972;2023-03-01T06:53:30;-0.30;99.90
2012;DHT22;1009;51.436;6.972;2023-03-01T06:55:57;-0.30;99.90
2012;DHT22;1009;51.436;6.972;2023-03-01T06:58:26;-0.30;99.90
2012;DHT22;1009;51.436;6.972;2023-03-01T07:00:53;-0.40;99.90
2012;DHT22;1009;51.436;6.972;2023-03-01T07:03:20;-0.40;99.90
2012;DHT22;1009;51.436;6.972;2023-03-01T07:05:48;-0.50;99.90
2012;DHT22;1009;51.436;6.972;2023-03-01T07:08:17;-0.40;99.90
2012;DHT22;1009;51.436;6.972;2023-03-01T07:10:43;-0.30;99.90
2012;DHT22;1009;51.436;6.972;2023-03-01T07:13:10;-0.30;99.90
2012;DHT22;1009;51.436;6.972;2023-03-01T07:15:40;-0.30;99.90
2012;DHT22;1009;51.436;6.972;2023-03-01T07:18:09;-0.20;99.90
2012;DHT22;1009;51.436;6.972;2023-03-01T07:20:36;-0.10;99.90
2012;DHT22;1009;51.436;6.972;2023-03-01T07:23:03;-0.10;99.90
2012;DHT22;1009;51.436;6.972;2023-03-01T07:25:32;-0.10;99.90
2012;DHT22;1009;51.436;6.972;2023-03-01T07:27:59;-0.10;99.90
2012;DHT22;1009;51.436;6.972;2023-03-01T07:30:25;0.00;99.90
2012;DHT22;1009;51.436;6.972;2023-03-01T07:32:55;0.00;99.90
2012;DHT22;1009;51.436;6.972;2023-03-01T07:35:31;0.10;99.90
2012;DHT22;1009;51.436;6.972;2023-03-01T07:37:58;0.10;99.90
2012;DHT22;1009;51.436;6.972;2023-03-01T07:40:25;0.10;99.90
2012;DHT22;1009;51.436;6.972;2023-03-01T07:42:55;0.10;99.90
2012;DHT22;1009;51.436;6.972;2023-03-01T07:45:22;0.20;99.90
2012;DHT22;1009;51.436;6.972;2023-03-01T07:47:50;0.30;99.90
2012;DHT22;1009;51.436;6.972;2023-03-01T07:50:18;0.40;99.90
2012;DHT22;1009;51.436;6.972;2023-03-01T07:52:45;0.40;99.90
2012;DHT22;1009;51.436;6.972;2023-03-01T07:55:11;0.60;99.90
2012;DHT22;1009;51.436;6.972;2023-03-01T07:57:38;0.70;99.90
2012;DHT22;1009;51.436;6.972;2023-03-01T08:00:07;0.80;99.90
2012;DHT22;1009;51.436;6.972;2023-03-01T08:02:40;0.80;99.90
2012;DHT22;1009;51.436;6.972;2023-03-01T08:05:07;0.90;99.90
2012;DHT22;1009;51.436;6.972;2023-03-01T08:07:36;1.00;99.90
2012;DHT22;1009;51.436;6.972;2023-03-01T08:10:03;1.00;99.90
2012;DHT22;1009;51.436;6.972;2023-03-01T08:12:30;1.00;99.90
2012;DHT22;1009;51.436;6.972;2023-03-01T08:14:57;1.10;99.90
2012;DHT22;1009;51.436;6.972;2023-03-01T08:17:24;1.20;99.90
2012;DHT22;1009;51.436;6.972;2023-03-01T08:19:51;1.30;99.90
2012;DHT22;1009;51.436;6.972;2023-03-01T08:22:17;1.40;99.90
2012;DHT22;1009;51.436;6.972;2023-03-01T08:24:46;1.60;99.90
2012;DHT22;1009;51.436;6.972;2023-03-01T08:27:14;1.70;99.90
2012;DHT22;1009;51.436;6.972;2023-03-01T08:29:41;1.70;99.90
2012;DHT22;1009;51.436;6.972;2023-03-01T08:32:08;1.90;99.90
2012;DHT22;1009;51.436;6.972;2023-03-01T08:34:34;2.00;99.90
2012;DHT22;1009;51.436;6.972;2023-03-01T08:37:02;2.00;99.90
2012;DHT22;1009;51.436;6.972;2023-03-01T08:39:29;2.10;99.90
2012;DHT22;1009;51.436;6.972;2023-03-01T08:41:57;2.20;99.90
2012;DHT22;1009;51.436;6.972;2023-03-01T08:44:24;2.20;99.90
2012;DHT22;1009;51.436;6.972;2023-03-01T08:46:51;2.30;99.90
2012;DHT22;1009;51.436;6.972;2023-03-01T08:49:19;2.20;99.90
2012;DHT22;1009;51.436;6.972;2023-03-01T08:51:46;2.20;99.90
2012;DHT22;1009;51.436;6.972;2023-03-01T08:54:15;2.20;99.90
2012;DHT22;1009;51.436;6.972;2023-03-01T08:56:43;2.20;99.90
2012;DHT22;1009;51.436;6.972;2023-03-01T08:59:13;2.30;99.90
2012;DHT22;1009;51.436;6.972;2023-03-01T09:01:41;2.40;99.90
2012;DHT22;1009;51.436;6.972;2023-03-01T09:04:10;2.50;99.90
2012;DHT22;1009;51.436;6.972;2023-03-01T09:06:37;2.60;99.90
2012;DHT22;1009;51.436;6.972;2023-03-01T09:09:05;2.70;99.90
2012;DHT22;1009;51.436;6.972;2023-03-01T09:11:33;2.90;99.90
2012;DHT22;1009;51.436;6.972;2023-03-01T09:13:59;3.10;99.90
2012;DHT22;1009;51.436;6.972;2023-03-01T09:16:30;3.10;99.90
2012;DHT22;1009;51.436;6.972;2023-03-01T09:19:02;3.30;99.90
2012;DHT22;1009;51.436;6.972;2023-03-01T09:21:30;3.40;99.90
2012;DHT22;1009;51.436;6.972;2023-03-01T09:23:57;3.50;99.90
2012;DHT22;1009;51.436;6.972;2023-03-01T09:26:25;3.60;99.90
2012;DHT22;1009;51.436;6.972;2023-03-01T09:28:55;3.60;99.90
2012;DHT22;1009;51.436;6.972;2023-03-01T09:31:23;3.70;99.90
2012;DHT22;1009;51.436;6.972;2023-03-01T09:33:52;3.70;99.90
2012;DHT22;1009;51.436;6.972;2023-03-01T09:36:21;3.70;99.90
2012;DHT22;1009;51.436;6.972;2023-03-01T09:38:48;3.80;99.90
2012;DHT22;1009;51.436;6.972;2023-03-01T09:41:34;3.90;99.90
2012;DHT22;1009;51.436;6.972;2023-03-01T09:44:11;4.10;99.90
2012;DHT22;1009;51.436;6.972;2023-03-01T09:46:43;4.20;99.90
2012;DHT22;1009;51.436;6.972;2023-03-01T09:49:18;4.20;99.90
2012;DHT22;1009;51.436;6.972;2023-03-01T09:51:54;4.30;99.90
2012;DHT22;1009;51.436;6.972;2023-03-01T09:54:22;4.40;99.90
2012;DHT22;1009;51.436;6.972;2023-03-01T09:56:57;4.50;99.90
2012;DHT22;1009;51.436;6.972;2023-03-01T09:59:29;4.50;99.90
2012;DHT22;1009;51.436;6.972;2023-03-01T10:02:05;4.50;99.90
2012;DHT22;1009;51.436;6.972;2023-03-01T10:04:45;4.60;99.90
2012;DHT22;1009;51.436;6.972;2023-03-01T10:07:21;4.60;99.90
2012;DHT22;1009;51.436;6.972;2023-03-01T10:09:53;4.60;99.90
2012;DHT22;1009;51.436;6.972;2023-03-01T10:12:24;4.60;99.90
2012;DHT22;1009;51.436;6.972;2023-03-01T10:14:57;4.80;99.90
2012;DHT22;1009;51.436;6.972;2023-03-01T10:17:32;4.90;99.90
2012;DHT22;1009;51.436;6.972;2023-03-01T10:20:16;4.90;99.90
2012;DHT22;1009;51.436;6.972;2023-03-01T10:22:43;5.00;99.90
2012;DHT22;1009;51.436;6.972;2023-03-01T10:25:15;5.00;99.90
2012;DHT22;1009;51.436;6.972;2023-03-01T10:27:49;5.10;99.90
2012;DHT22;1009;51.436;6.972;2023-03-01T10:30:20;5.20;99.90
2012;DHT22;1009;51.436;6.972;2023-03-01T10:32:50;5.10;99.90
2012;DHT22;1009;51.436;6.972;2023-03-01T10:35:22;5.10;99.90
2012;DHT22;1009;51.436;6.972;2023-03-01T10:38:02;5.30;99.90
2012;DHT22;1009;51.436;6.972;2023-03-01T10:40:29;5.40;99.90
2012;DHT22;1009;51.436;6.972;2023-03-01T10:42:58;5.60;99.90
2012;DHT22;1009;51.436;6.972;2023-03-01T10:45:35;5.80;99.90
2012;DHT22;1009;51.436;6.972;2023-03-01T10:48:04;5.70;99.90
2012;DHT22;1009;51.436;6.972;2023-03-01T10:50:33;5.60;99.90
2012;DHT22;1009;51.436;6.972;2023-03-01T10:53:01;5.60;99.90
2012;DHT22;1009;51.436;6.972;2023-03-01T10:55:33;5.60;99.50
2012;DHT22;1009;51.436;6.972;2023-03-01T10:58:15;5.80;99.60
2012;DHT22;1009;51.436;6.972;2023-03-01T11:00:49;5.70;99.90
2012;DHT22;1009;51.436;6.972;2023-03-01T11:03:21;5.90;99.80
2012;DHT22;1009;51.436;6.972;2023-03-01T11:05:55;6.00;99.50
2012;DHT22;1009;51.436;6.972;2023-03-01T11:08:37;6.20;99.10
2012;DHT22;1009;51.436;6.972;2023-03-01T11:11:06;6.50;98.10
2012;DHT22;1009;51.436;6.972;2023-03-01T11:13:33;6.60;97.60
2012;DHT22;1009;51.436;6.972;2023-03-01T11:16:02;6.40;96.30
2012;DHT22;1009;51.436;6.972;2023-03-01T11:18:31;6.50;96.30
2012;DHT22;1009;51.436;6.972;2023-03-01T11:21:01;6.70;97.00
2012;DHT22;1009;51.436;6.972;2023-03-01T11:23:29;6.80;94.70
2012;DHT22;1009;51.436;6.972;2023-03-01T11:25:59;6.90;95.10
2012;DHT22;1009;51.436;6.972;2023-03-01T11:28:28;7.00;96.40
2012;DHT22;1009;51.436;6.972;2023-03-01T11:30:58;7.10;95.00
2012;DHT22;1009;51.436;6.972;2023-03-01T11:33:37;7.40;94.50
2012;DHT22;1009;51.436;6.972;2023-03-01T11:36:16;7.40;94.70
2012;DHT22;1009;51.436;6.972;2023-03-01T11:38:43;7.60;96.10
2012;DHT22;1009;51.436;6.972;2023-03-01T11:41:14;7.70;93.30
2012;DHT22;1009;51.436;6.972;2023-03-01T11:43:49;7.60;92.60
2012;DHT22;1009;51.436;6.972;2023-03-01T11:46:44;7.30;91.90
2012;DHT22;1009;51.436;6.972;2023-03-01T11:49:40;7.10;92.90
2012;DHT22;1009;51.436;6.972;2023-03-01T11:52:21;6.90;92.40
2012;DHT22;1009;51.436;6.972;2023-03-01T11:54:57;6.90;92.00
2012;DHT22;1009;51.436;6.972;2023-03-01T11:57:42;7.20;93.30
2012;DHT22;1009;51.436;6.972;2023-03-01T12:00:22;7.40;93.60
2012;DHT22;1009;51.436;6.972;2023-03-01T12:06:23;7.60;91.70
2012;DHT22;1009;51.436;6.972;2023-03-01T12:09:05;7.90;93.00
2012;DHT22;1009;51.436;6.972;2023-03-01T12:11:42;7.90;90.80
2012;DHT22;1009;51.436;6.972;2023-03-01T12:14:36;7.40;90.00
2012;DHT22;1009;51.436;6.972;2023-03-01T12:17:20;7.30;91.30
2012;DHT22;1009;51.436;6.972;2023-03-01T12:20:02;7.30;90.50
2012;DHT22;1009;51.436;6.972;2023-03-01T12:22:43;7.30;91.00
2012;DHT22;1009;51.436;6.972;2023-03-01T12:25:25;7.60;92.30
2012;DHT22;1009;51.436;6.972;2023-03-01T12:28:18;7.80;92.40
2012;DHT22;1009;51.436;6.972;2023-03-01T12:33:54;7.20;90.00
2012;DHT22;1009;51.436;6.972;2023-03-01T12:36:35;7.00;91.60
2012;DHT22;1009;51.436;6.972;2023-03-01T12:39:18;6.90;91.00
2012;DHT22;1009;51.436;6.972;2023-03-01T12:41:56;7.10;91.40
2012;DHT22;1009;51.436;6.972;2023-03-01T12:44:44;6.80;90.30
2012;DHT22;1009;51.436;6.972;2023-03-01T12:47:23;6.90;91.10
2012;DHT22;1009;51.436;6.972;2023-03-01T12:49:55;6.90;90.10
2012;DHT22;1009;51.436;6.972;2023-03-01T12:52:32;7.10;90.70
2012;DHT22;1009;51.436;6.972;2023-03-01T12:55:08;7.40;90.20
2012;DHT22;1009;51.436;6.972;2023-03-01T12:57:40;7.40;89.60
2012;DHT22;1009;51.436;6.972;2023-03-01T13:00:22;7.40;89.30
2012;DHT22;1009;51.436;6.972;2023-03-01T13:02:57;7.80;91.30
2012;DHT22;1009;51.436;6.972;2023-03-01T13:05:37;8.10;88.50
2012;DHT22;1009;51.436;6.972;2023-03-01T13:08:14;8.10;88.50
2012;DHT22;1009;51.436;6.972;2023-03-01T13:10:46;8.40;86.40
2012;DHT22;1009;51.436;6.972;2023-03-01T13:13:22;8.60;89.20
2012;DHT22;1009;51.436;6.972;2023-03-01T13:15:50;8.80;83.80
2012;DHT22;1009;51.436;6.972;2023-03-01T13:18:31;8.70;85.20
2012;DHT22;1009;51.436;6.972;2023-03-01T13:21:02;8.70;81.10
2012;DHT22;1009;51.436;6.972;2023-03-01T13:23:33;8.60;83.80
2012;DHT22;1009;51.436;6.972;2023-03-01T13:26:10;8.80;84.10
2012;DHT22;1009;51.436;6.972;2023-03-01T13:31:59;9.10;83.00
2012;DHT22;1009;51.436;6.972;2023-03-01T13:34:51;9.20;83.80
2012;DHT22;1009;51.436;6.972;2023-03-01T13:37:38;9.30;83.20
2012;DHT22;1009;51.436;6.972;2023-03-01T13:43:31;9.10;80.40
2012;DHT22;1009;51.436;6.972;2023-03-01T13:46:00;9.30;84.20
2012;DHT22;1009;51.436;6.972;2023-03-01T13:48:29;9.60;79.40
2012;DHT22;1009;51.436;6.972;2023-03-01T13:50:59;9.70;79.20
2012;DHT22;1009;51.436;6.972;2023-03-01T13:53:31;9.10;78.40
2012;DHT22;1009;51.436;6.972;2023-03-01T13:56:00;9.10;79.40
2012;DHT22;1009;51.436;6.972;2023-03-01T13:58:29;9.50;81.20
2012;DHT22;1009;51.436;6.972;2023-03-01T14:00:59;9.80;81.30
2012;DHT22;1009;51.436;6.972;2023-03-01T14:03:27;9.10;75.80
2012;DHT22;1009;51.436;6.972;2023-03-01T14:06:06;8.90;79.60
2012;DHT22;1009;51.436;6.972;2023-03-01T14:08:34;9.30;79.80
2012;DHT22;1009;51.436;6.972;2023-03-01T14:11:26;9.60;78.70
2012;DHT22;1009;51.436;6.972;2023-03-01T14:14:17;9.60;77.80
2012;DHT22;1009;51.436;6.972;2023-03-01T14:16:57;9.60;75.70
2012;DHT22;1009;51.436;6.972;2023-03-01T14:19:27;9.20;75.30
2012;DHT22;1009;51.436;6.972;2023-03-01T14:22:10;9.20;76.80
2012;DHT22;1009;51.436;6.972;2023-03-01T14:24:44;9.40;77.80
2012;DHT22;1009;51.436;6.972;2023-03-01T14:27:12;9.80;77.00
2012;DHT22;1009;51.436;6.972;2023-03-01T14:29:40;9.90;76.80
2012;DHT22;1009;51.436;6.972;2023-03-01T14:32:17;10.10;77.00
2012;DHT22;1009;51.436;6.972;2023-03-01T14:34:46;9.90;73.50
2012;DHT22;1009;51.436;6.972;2023-03-01T14:37:22;9.50;75.10
2012;DHT22;1009;51.436;6.972;2023-03-01T14:39:49;9.40;77.20
2012;DHT22;1009;51.436;6.972;2023-03-01T14:42:16;9.10;75.00
2012;DHT22;1009;51.436;6.972;2023-03-01T14:44:46;8.80;76.30
2012;DHT22;1009;51.436;6.972;2023-03-01T14:47:19;8.40;76.00
2012;DHT22;1009;51.436;6.972;2023-03-01T14:49:54;8.50;80.10
2012;DHT22;1009;51.436;6.972;2023-03-01T14:52:28;8.70;79.80
2012;DHT22;1009;51.436;6.972;2023-03-01T14:54:59;8.80;79.90
2012;DHT22;1009;51.436;6.972;2023-03-01T14:57:27;8.80;78.90
2012;DHT22;1009;51.436;6.972;2023-03-01T14:59:57;8.80;80.10
2012;DHT22;1009;51.436;6.972;2023-03-01T15:02:28;8.70;78.20
2012;DHT22;1009;51.436;6.972;2023-03-01T15:04:57;8.20;77.20
2012;DHT22;1009;51.436;6.972;2023-03-01T15:07:29;7.80;77.40
2012;DHT22;1009;51.436;6.972;2023-03-01T15:09:57;7.90;80.50
2012;DHT22;1009;51.436;6.972;2023-03-01T15:12:39;8.00;80.20
2012;DHT22;1009;51.436;6.972;2023-03-01T15:15:37;8.00;80.00
2012;DHT22;1009;51.436;6.972;2023-03-01T15:18:16;8.00;80.20
2012;DHT22;1009;51.436;6.972;2023-03-01T15:20:49;8.10;79.70
2012;DHT22;1009;51.436;6.972;2023-03-01T15:23:21;8.20;79.60
2012;DHT22;1009;51.436;6.972;2023-03-01T15:25:49;8.10;80.40
2012;DHT22;1009;51.436;6.972;2023-03-01T15:28:23;8.10;80.50
2012;DHT22;1009;51.436;6.972;2023-03-01T15:30:57;8.00;81.00
2012;DHT22;1009;51.436;6.972;2023-03-01T15:33:34;7.90;81.60
2012;DHT22;1009;51.436;6.972;2023-03-01T15:36:04;7.80;81.60
2012;DHT22;1009;51.436;6.972;2023-03-01T15:38:53;7.90;82.00
2012;DHT22;1009;51.436;6.972;2023-03-01T15:41:23;7.90;82.40
2012;DHT22;1009;51.436;6.972;2023-03-01T15:43:51;7.60;82.00
2012;DHT22;1009;51.436;6.972;2023-03-01T15:46:22;7.50;82.50
2012;DHT22;1009;51.436;6.972;2023-03-01T15:48:54;7.40;82.90
2012;DHT22;1009;51.436;6.972;2023-03-01T15:51:28;7.30;85.00
2012;DHT22;1009;51.436;6.972;2023-03-01T15:53:58;7.30;84.00
2012;DHT22;1009;51.436;6.972;2023-03-01T15:56:25;7.00;83.20
2012;DHT22;1009;51.436;6.972;2023-03-01T15:58:52;7.00;83.80
2012;DHT22;1009;51.436;6.972;2023-03-01T16:01:19;7.00;84.90
2012;DHT22;1009;51.436;6.972;2023-03-01T16:03:46;6.90;82.70
2012;DHT22;1009;51.436;6.972;2023-03-01T16:06:14;6.70;83.30
2012;DHT22;1009;51.436;6.972;2023-03-01T16:08:41;6.80;83.10
2012;DHT22;1009;51.436;6.972;2023-03-01T16:11:14;6.80;83.50
2012;DHT22;1009;51.436;6.972;2023-03-01T16:13:42;6.80;83.70
2012;DHT22;1009;51.436;6.972;2023-03-01T16:16:10;6.80;84.80
2012;DHT22;1009;51.436;6.972;2023-03-01T16:18:40;6.80;85.30
2012;DHT22;1009;51.436;6.972;2023-03-01T16:21:08;6.80;85.00
2012;DHT22;1009;51.436;6.972;2023-03-01T16:23:38;6.70;83.90
2012;DHT22;1009;51.436;6.972;2023-03-01T16:26:05;6.70;85.30
2012;DHT22;1009;51.436;6.972;2023-03-01T16:28:34;6.80;85.60
2012;DHT22;1009;51.436;6.972;2023-03-01T16:31:01;6.80;84.10
2012;DHT22;1009;51.436;6.972;2023-03-01T16:33:28;6.80;84.40
2012;DHT22;1009;51.436;6.972;2023-03-01T16:35:55;6.70;85.30
2012;DHT22;1009;51.436;6.972;2023-03-01T16:38:22;6.80;84.90
2012;DHT22;1009;51.436;6.972;2023-03-01T16:40:50;6.70;84.90
2012;DHT22;1009;51.436;6.972;2023-03-01T16:43:17;6.80;85.60
2012;DHT22;1009;51.436;6.972;2023-03-01T16:45:44;6.80;84.80
2012;DHT22;1009;51.436;6.972;2023-03-01T16:48:11;6.60;84.20
2012;DHT22;1009;51.436;6.972;2023-03-01T16:50:38;6.60;84.60
2012;DHT22;1009;51.436;6.972;2023-03-01T16:53:05;6.60;85.00